Terminal Aerodrome Forecast
Issued by NWS

Home | Current Version | Previous Version | Text Only | Print | Product List | Glossary On
Versions: 1 2 3 4 5 6 7 8 9 10 11 12 13 14 15 16 17 18 19 20
081
FTUS41 KGYX 241726
TAFLEB
TAF
KLEB 241726Z 2418/2518 16007KT P6SM OVC040
      TEMPO 2418/2420 1SM -TSRA BR BKN025CB
     FM250300 00000KT 3SM BR OVC009
     FM250800 00000KT 1/2SM FG SCT250
     FM251300 29005KT P6SM SCT250=

USA.gov is the U.S. government's official web portal to all federal, state and local government web resources and services.